Time;durP1;ratioP1;P1;durP2;ratioP2;P2;SDS_P1;SDS_P2;PMS_P1;PMS_P2;Temp;Humidity;BMP_temperature;BMP_pressure;BME280_temperature;BME280_humidity;BME280_pressure;Samples;Min_cycle;Max_cycle;Signal;HPM_P1;HPM_P2
2021/08/13 00:05:45;;;;;;;14.65;6.57;;;25.70;92.90;;;;;;12067198;28;20044;-66
2021/08/13 08:55:58;;;;;;;4.95;3.17;;;24.30;92.90;;;;;;12067076;28;20401;-68
2021/08/13 09:07:31;;;;;;;6.72;3.50;;;24.80;92.20;;;;;;12011739;23;20068;-82
2021/08/13 09:13:23;;;;;;;4.43;3.00;;;24.90;91.30;;;;;;11996650;28;20049;-83
2021/08/13 09:19:11;;;;;;;11.23;3.42;;;24.90;91.00;;;;;;11992180;28;20077;-84
2021/08/13 09:24:59;;;;;;;5.97;2.67;;;25.10;91.40;;;;;;11992780;28;20053;-82
2021/08/13 09:30:47;;;;;;;5.30;3.28;;;25.30;90.80;;;;;;11994094;28;20102;-83
2021/08/13 09:36:35;;;;;;;3.97;2.78;;;25.60;90.70;;;;;;11996206;28;20049;-83
2021/08/13 09:42:34;;;;;;;5.38;3.03;;;25.70;90.00;;;;;;12000399;28;20049;-85
2021/08/13 09:48:25;;;;;;;6.88;2.85;;;25.70;89.70;;;;;;11996277;28;20045;-84
2021/08/13 09:54:12;;;;;;;4.38;2.78;;;25.70;87.60;;;;;;11987283;28;20110;-87
2021/08/13 10:00:04;;;;;;;4.30;3.05;;;25.70;88.00;;;;;;12001555;28;20042;-85
2021/08/13 10:06:06;;;;;;;6.25;3.17;;;25.70;89.30;;;;;;11971612;28;20228;-86
2021/08/13 10:12:10;;;;;;;5.50;3.83;;;25.80;88.10;;;;;;11960647;28;20053;-87
2021/08/13 10:17:58;;;;;;;7.28;3.50;;;25.90;89.70;;;;;;11959108;28;20212;-86
2021/08/13 10:24:13;;;;;;;6.40;3.58;;;26.10;88.50;;;;;;11980513;28;20050;-86
2021/08/13 10:30:01;;;;;;;8.02;3.85;;;26.30;88.60;;;;;;11952913;28;20083;-86
2021/08/13 10:35:54;;;;;;;6.93;4.05;;;26.40;87.20;;;;;;11959797;28;20049;-85
2021/08/13 10:41:45;;;;;;;7.97;4.38;;;26.40;87.30;;;;;;11962931;28;20072;-85
2021/08/13 10:47:37;;;;;;;10.20;4.60;;;26.70;87.50;;;;;;11970603;28;20048;-85
2021/08/13 10:53:26;;;;;;;7.57;4.65;;;26.80;86.80;;;;;;11961566;28;20049;-84
2021/08/13 10:59:35;;;;;;;9.23;4.82;;;27.00;87.40;;;;;;11974370;28;20096;-87
2021/08/13 11:05:50;;;;;;;8.63;4.30;;;27.10;85.90;;;;;;11995247;28;20247;-87
2021/08/13 11:12:09;;;;;;;10.48;5.15;;;27.30;86.60;;;;;;11961834;28;20045;-86
2021/08/13 11:17:58;;;;;;;8.70;4.88;;;27.30;85.70;;;;;;11945309;28;20085;-85
2021/08/13 11:23:58;;;;;;;9.38;5.18;;;27.50;86.10;;;;;;11955716;28;20049;-84
2021/08/13 11:29:45;;;;;;;11.02;4.90;;;27.60;85.30;;;;;;11965942;28;20053;-85
2021/08/13 11:35:38;;;;;;;10.85;5.97;;;27.40;84.90;;;;;;11959062;28;20041;-85
2021/08/13 11:41:27;;;;;;;10.95;5.03;;;27.80;84.30;;;;;;11967174;28;20049;-83
2021/08/13 11:47:17;;;;;;;9.73;5.85;;;28.20;84.30;;;;;;11960729;28;20049;-82
2021/08/13 11:53:06;;;;;;;7.20;5.00;;;28.10;83.30;;;;;;11944525;28;20052;-80
2021/08/13 11:59:00;;;;;;;6.38;5.38;;;27.80;84.10;;;;;;11942699;28;20056;-83
2021/08/13 12:04:50;;;;;;;8.35;5.28;;;27.90;84.40;;;;;;11945613;28;20042;-84
2021/08/13 12:10:38;;;;;;;6.70;4.90;;;27.70;81.40;;;;;;11950181;28;20136;-83
2021/08/13 12:16:25;;;;;;;7.47;4.80;;;28.00;83.30;;;;;;11954675;28;20046;-84
2021/08/13 12:22:13;;;;;;;8.20;4.63;;;28.20;82.20;;;;;;11946463;28;20777;-77
2021/08/13 12:28:02;;;;;;;10.30;5.53;;;28.10;79.80;;;;;;11938987;28;20053;-77
2021/08/13 12:33:56;;;;;;;7.63;4.82;;;28.50;79.80;;;;;;11945220;28;20057;-78
2021/08/13 12:39:44;;;;;;;6.38;4.72;;;28.50;80.70;;;;;;11945180;28;20072;-77
2021/08/13 12:45:33;;;;;;;8.40;5.03;;;28.60;79.10;;;;;;11945191;28;20108;-77
2021/08/13 12:51:28;;;;;;;9.40;4.82;;;28.50;77.30;;;;;;11945505;28;21122;-78
2021/08/13 12:57:18;;;;;;;8.68;4.53;;;28.60;77.70;;;;;;11945079;28;20050;-77
2021/08/13 13:03:15;;;;;;;8.95;4.57;;;28.80;78.10;;;;;;11947224;28;20053;-78
2021/08/13 13:09:05;;;;;;;6.20;4.45;;;28.70;77.80;;;;;;11943011;28;20069;-77
2021/08/13 13:14:56;;;;;;;6.88;4.07;;;28.80;77.00;;;;;;11943840;28;20729;-78
2021/08/13 13:20:44;;;;;;;7.95;4.72;;;28.90;77.10;;;;;;11942459;28;20065;-77
2021/08/13 13:26:31;;;;;;;6.82;5.38;;;29.30;76.80;;;;;;11938726;28;20125;-79
2021/08/13 13:32:20;;;;;;;6.45;4.88;;;29.50;75.70;;;;;;11946298;28;20678;-77
2021/08/13 13:38:09;;;;;;;9.25;5.10;;;29.30;76.30;;;;;;11947460;28;20061;-79
2021/08/13 13:43:57;;;;;;;10.55;5.00;;;29.20;75.10;;;;;;11961105;28;20045;-78
2021/08/13 13:49:43;;;;;;;9.85;4.50;;;29.20;75.10;;;;;;11958163;28;20054;-77
2021/08/13 13:55:32;;;;;;;6.50;4.45;;;29.20;74.00;;;;;;11952402;28;20045;-77
2021/08/13 14:01:19;;;;;;;7.10;4.57;;;29.20;74.50;;;;;;11949503;28;20525;-78
2021/08/13 14:07:06;;;;;;;5.78;4.18;;;29.50;74.80;;;;;;11959263;28;20061;-78
2021/08/13 14:13:09;;;;;;;7.43;4.80;;;29.90;73.60;;;;;;11964018;28;20091;-78
2021/08/13 14:18:55;;;;;;;;;;;29.90;72.90;;;;;;11971638;28;20097;-80
2021/08/13 14:24:42;;;;;;;10.05;4.10;;;30.10;71.80;;;;;;11977420;28;19926;-78
2021/08/13 14:30:31;;;;;;;7.72;4.38;;;30.10;71.30;;;;;;11959572;28;20139;-86
2021/08/13 14:36:18;;;;;;;7.32;4.65;;;30.20;72.20;;;;;;11957400;28;20067;-87
2021/08/13 14:42:08;;;;;;;5.47;4.28;;;30.40;71.20;;;;;;11960556;28;20053;-86
2021/08/13 14:47:56;;;;;;;5.30;4.40;;;30.50;69.70;;;;;;11965504;28;20045;-84
2021/08/13 14:53:43;;;;;;;4.93;4.40;;;30.60;70.50;;;;;;11956653;28;20168;-90
2021/08/13 14:59:30;;;;;;;6.10;4.30;;;30.80;70.00;;;;;;11957383;28;20049;-89
2021/08/13 15:05:21;;;;;;;6.60;4.38;;;30.70;68.40;;;;;;11963224;28;20593;-87
2021/08/13 15:11:08;;;;;;;11.35;4.50;;;30.80;69.30;;;;;;11958740;28;20475;-88
2021/08/13 15:16:55;;;;;;;5.80;4.43;;;30.90;69.10;;;;;;11956352;28;20413;-89
2021/08/13 15:22:44;;;;;;;6.65;3.65;;;30.70;69.10;;;;;;11954460;28;20060;-86
2021/08/13 15:28:31;;;;;;;8.38;4.45;;;30.70;69.20;;;;;;11955345;28;20067;-87
2021/08/13 15:34:18;;;;;;;7.88;4.20;;;30.80;68.50;;;;;;11954659;28;20046;-86
2021/08/13 15:40:08;;;;;;;6.13;4.47;;;30.90;69.30;;;;;;11956214;28;20048;-88
2021/08/13 15:45:55;;;;;;;7.82;4.38;;;31.00;68.60;;;;;;11954519;28;20050;-87
2021/08/13 15:51:42;;;;;;;6.32;4.30;;;31.00;67.30;;;;;;11955425;28;20417;-88
2021/08/13 15:57:31;;;;;;;7.40;4.50;;;31.20;65.70;;;;;;11947636;28;20050;-88
2021/08/13 16:03:18;;;;;;;5.22;4.20;;;31.20;65.00;;;;;;11959198;28;20417;-88
2021/08/13 16:09:05;;;;;;;7.15;4.10;;;31.50;64.60;;;;;;11961988;28;20045;-87
2021/08/13 16:14:53;;;;;;;6.68;4.32;;;32.40;61.80;;;;;;11945422;28;20508;-87
2021/08/13 16:20:40;;;;;;;4.95;3.97;;;34.10;58.70;;;;;;11950127;28;20049;-88
2021/08/13 16:26:27;;;;;;;5.78;4.10;;;36.20;55.50;;;;;;11956004;28;21199;-89
2021/08/13 16:32:15;;;;;;;6.25;4.03;;;37.90;51.80;;;;;;11954102;28;20045;-89
2021/08/13 16:38:02;;;;;;;5.60;3.63;;;38.80;50.00;;;;;;11948267;28;20053;-89
2021/08/13 16:43:49;;;;;;;5.70;3.80;;;40.10;48.00;;;;;;11956174;28;20041;-88
2021/08/13 16:49:37;;;;;;;6.93;3.72;;;41.30;45.70;;;;;;11948253;28;20041;-88
2021/08/13 16:55:24;;;;;;;8.35;3.90;;;42.50;44.10;;;;;;11952971;28;20496;-89
2021/08/13 17:01:12;;;;;;;5.35;3.70;;;42.80;43.10;;;;;;11949096;28;20068;-88
2021/08/13 17:07:00;;;;;;;4.40;3.83;;;43.00;44.20;;;;;;11932632;28;20049;-87
2021/08/13 17:12:47;;;;;;;5.03;4.05;;;43.10;43.30;;;;;;11943109;28;22321;-87
2021/08/13 17:18:34;;;;;;;6.43;3.78;;;43.10;41.10;;;;;;11959889;28;20061;-87
2021/08/13 17:24:22;;;;;;;5.03;3.80;;;42.90;43.50;;;;;;11963533;28;20076;-89
2021/08/13 17:30:10;;;;;;;4.72;3.70;;;42.70;42.10;;;;;;11963537;28;20053;-88
2021/08/13 17:35:57;;;;;;;5.15;3.75;;;42.50;42.00;;;;;;11977443;28;20107;-89
2021/08/13 17:41:46;;;;;;;4.80;3.70;;;42.10;42.00;;;;;;11949141;28;20389;-80
2021/08/13 17:47:44;;;;;;;5.15;3.80;;;41.80;45.20;;;;;;11944377;28;20049;-87
2021/08/13 17:53:31;;;;;;;4.53;4.13;;;41.50;44.90;;;;;;11950860;28;20107;-80
2021/08/13 17:59:19;;;;;;;5.60;3.88;;;40.90;46.60;;;;;;11948769;28;20448;-80
2021/08/13 18:05:07;;;;;;;4.50;4.10;;;39.90;48.60;;;;;;11953519;28;20061;-80
2021/08/13 18:10:54;;;;;;;7.65;4.30;;;38.80;49.50;;;;;;11949301;28;20099;-79
2021/08/13 18:16:42;;;;;;;9.05;4.53;;;36.30;53.80;;;;;;11947798;28;20065;-79
2021/08/13 18:22:31;;;;;;;8.98;4.28;;;33.90;57.90;;;;;;11948932;28;20515;-79
2021/08/13 18:28:18;;;;;;;5.50;3.97;;;32.20;62.20;;;;;;11962019;28;20069;-78
2021/08/13 18:34:06;;;;;;;10.82;4.30;;;31.10;65.40;;;;;;11949058;28;20057;-78
2021/08/13 18:39:53;;;;;;;5.47;4.78;;;30.50;66.60;;;;;;11948739;28;20060;-79
2021/08/13 18:45:40;;;;;;;5.47;4.05;;;30.00;68.50;;;;;;11953149;28;20052;-78
2021/08/13 18:51:28;;;;;;;11.40;4.80;;;29.70;70.20;;;;;;11952925;28;20046;-78
2021/08/13 18:57:15;;;;;;;7.35;4.78;;;29.40;71.00;;;;;;11954121;28;20460;-78
2021/08/13 19:03:02;;;;;;;5.70;4.18;;;29.10;73.20;;;;;;11942196;28;20060;-79
2021/08/13 19:08:50;;;;;;;6.22;5.00;;;28.90;72.90;;;;;;11946404;28;20089;-78
2021/08/13 19:14:37;;;;;;;6.82;4.90;;;28.60;73.90;;;;;;11944657;28;20052;-78
2021/08/13 19:20:24;;;;;;;14.68;6.32;;;28.40;74.50;;;;;;11963262;28;20053;-81
2021/08/13 19:26:13;;;;;;;9.38;5.28;;;28.20;75.70;;;;;;12006377;28;20073;-89
2021/08/13 19:32:00;;;;;;;8.07;4.75;;;28.10;75.70;;;;;;12013115;28;20056;-86
2021/08/13 19:37:47;;;;;;;8.15;5.03;;;28.10;76.30;;;;;;12002453;28;20038;-90
2021/08/13 19:43:38;;;;;;;9.23;4.70;;;28.00;76.40;;;;;;11994447;28;20601;-89
2021/08/13 19:49:25;;;;;;;8.13;4.95;;;28.00;76.50;;;;;;11996197;28;20060;-87
2021/08/13 19:55:13;;;;;;;8.38;5.45;;;27.90;75.80;;;;;;11990979;28;20041;-87
2021/08/13 20:01:03;;;;;;;8.38;4.80;;;27.90;73.90;;;;;;11975798;28;20504;-80
2021/08/13 20:06:50;;;;;;;9.23;3.95;;;27.80;72.80;;;;;;11966349;28;20204;-82
2021/08/13 20:12:37;;;;;;;6.88;3.97;;;27.70;72.40;;;;;;11965620;28;20061;-83
2021/08/13 20:18:26;;;;;;;10.15;3.92;;;27.60;71.30;;;;;;11964042;28;20042;-82
2021/08/13 20:24:13;;;;;;;5.97;3.58;;;27.50;71.70;;;;;;11956028;28;20431;-82
2021/08/13 20:30:00;;;;;;;11.75;3.85;;;27.40;70.90;;;;;;11978931;28;20076;-82
2021/08/13 20:35:48;;;;;;;5.18;3.55;;;27.20;68.60;;;;;;11957152;28;20057;-81
2021/08/13 20:41:35;;;;;;;11.32;3.72;;;27.20;67.90;;;;;;11957883;28;20065;-80
2021/08/13 20:47:22;;;;;;;6.18;3.55;;;27.30;67.30;;;;;;11952562;28;20046;-82
2021/08/13 20:53:11;;;;;;;9.30;3.95;;;27.30;64.90;;;;;;11951989;28;20049;-82
2021/08/13 20:58:58;;;;;;;6.72;3.22;;;27.20;64.20;;;;;;11943931;28;20064;-82
2021/08/13 21:04:45;;;;;;;11.38;3.95;;;27.20;63.20;;;;;;11940751;28;20536;-82
2021/08/13 21:10:33;;;;;;;8.50;3.50;;;27.20;63.70;;;;;;11940892;28;20058;-81
2021/08/13 21:16:20;;;;;;;6.85;3.10;;;27.00;62.10;;;;;;11954357;28;20049;-80
2021/08/13 21:22:07;;;;;;;14.82;3.88;;;27.00;64.90;;;;;;11950188;28;20054;-83
2021/08/13 21:27:55;;;;;;;9.88;3.67;;;26.90;62.80;;;;;;11953013;28;20052;-84
2021/08/13 21:33:42;;;;;;;7.57;3.53;;;26.80;63.30;;;;;;11946265;28;20050;-83
2021/08/13 21:39:29;;;;;;;9.15;4.03;;;26.80;65.10;;;;;;11954260;28;20068;-84
2021/08/13 21:45:17;;;;;;;10.75;3.45;;;26.60;64.00;;;;;;11947269;28;20052;-84
2021/08/13 21:51:05;;;;;;;11.85;3.38;;;26.40;66.10;;;;;;11956209;28;20054;-84
2021/08/13 21:56:52;;;;;;;13.68;3.22;;;26.40;66.10;;;;;;11950712;28;20570;-84
2021/08/13 22:02:40;;;;;;;13.02;4.07;;;26.30;64.80;;;;;;11949035;28;20056;-84
2021/08/13 22:08:27;;;;;;;8.00;3.40;;;26.20;66.20;;;;;;11960871;28;20054;-83
2021/08/13 22:14:14;;;;;;;8.00;3.25;;;26.20;66.00;;;;;;11961324;28;20060;-84
2021/08/13 22:20:02;;;;;;;8.50;3.70;;;26.10;66.10;;;;;;11963962;28;20061;-84
2021/08/13 22:25:50;;;;;;;6.28;3.45;;;25.80;66.50;;;;;;11954519;28;20501;-84
2021/08/13 22:31:37;;;;;;;6.72;3.50;;;25.80;66.80;;;;;;11956304;28;20224;-84
2021/08/13 22:37:25;;;;;;;8.43;3.55;;;25.70;66.60;;;;;;11955409;28;20192;-83
2021/08/13 22:43:14;;;;;;;9.55;3.10;;;25.70;66.90;;;;;;11960241;28;20159;-84
2021/08/13 22:49:01;;;;;;;11.95;3.60;;;25.60;67.80;;;;;;11957734;28;20059;-84
2021/08/13 22:54:49;;;;;;;6.10;3.42;;;25.70;68.10;;;;;;11956021;28;20041;-84
2021/08/13 23:00:36;;;;;;;12.18;3.40;;;25.70;68.90;;;;;;11957202;28;20057;-84
